sensor_id;sensor_type;location;lat;lon;timestamp;P1;durP1;ratioP1;P2;durP2;ratioP2
46355;SDS011;32066;49.474;11.106;2023-04-24T00:02:29;4.78;;;1.60;;
46355;SDS011;32066;49.474;11.106;2023-04-24T00:04:57;5.22;;;1.60;;
46355;SDS011;32066;49.474;11.106;2023-04-24T00:07:27;3.58;;;1.30;;
46355;SDS011;32066;49.474;11.106;2023-04-24T00:09:56;5.07;;;1.40;;
46355;SDS011;32066;49.474;11.106;2023-04-24T00:12:25;4.35;;;1.52;;
46355;SDS011;32066;49.474;11.106;2023-04-24T00:14:54;3.92;;;1.40;;
46355;SDS011;32066;49.474;11.106;2023-04-24T00:17:24;3.67;;;1.30;;
46355;SDS011;32066;49.474;11.106;2023-04-24T00:19:55;4.28;;;1.40;;
46355;SDS011;32066;49.474;11.106;2023-04-24T00:22:24;4.45;;;1.45;;
46355;SDS011;32066;49.474;11.106;2023-04-24T00:24:53;4.22;;;1.50;;
46355;SDS011;32066;49.474;11.106;2023-04-24T00:27:21;3.75;;;1.33;;
46355;SDS011;32066;49.474;11.106;2023-04-24T00:29:50;4.80;;;1.45;;
46355;SDS011;32066;49.474;11.106;2023-04-24T00:32:19;4.00;;;1.33;;
46355;SDS011;32066;49.474;11.106;2023-04-24T00:34:47;3.40;;;1.20;;
46355;SDS011;32066;49.474;11.106;2023-04-24T00:37:19;4.03;;;1.48;;
46355;SDS011;32066;49.474;11.106;2023-04-24T00:39:48;4.40;;;1.50;;
46355;SDS011;32066;49.474;11.106;2023-04-24T00:42:16;3.53;;;1.23;;
46355;SDS011;32066;49.474;11.106;2023-04-24T00:44:45;5.70;;;1.80;;
46355;SDS011;32066;49.474;11.106;2023-04-24T00:47:14;2.85;;;1.20;;
46355;SDS011;32066;49.474;11.106;2023-04-24T00:49:43;4.25;;;1.65;;
46355;SDS011;32066;49.474;11.106;2023-04-24T00:52:12;6.60;;;1.65;;
46355;SDS011;32066;49.474;11.106;2023-04-24T00:54:45;3.85;;;1.05;;
46355;SDS011;32066;49.474;11.106;2023-04-24T00:57:14;3.95;;;1.30;;
46355;SDS011;32066;49.474;11.106;2023-04-24T00:59:43;4.47;;;1.27;;
46355;SDS011;32066;49.474;11.106;2023-04-24T01:02:12;4.53;;;1.42;;
46355;SDS011;32066;49.474;11.106;2023-04-24T01:04:41;4.78;;;1.35;;
46355;SDS011;32066;49.474;11.106;2023-04-24T01:07:11;3.05;;;1.27;;
46355;SDS011;32066;49.474;11.106;2023-04-24T01:09:40;4.53;;;1.67;;
46355;SDS011;32066;49.474;11.106;2023-04-24T01:12:12;3.30;;;1.27;;
46355;SDS011;32066;49.474;11.106;2023-04-24T01:14:40;3.50;;;1.30;;
46355;SDS011;32066;49.474;11.106;2023-04-24T01:17:09;3.10;;;1.30;;
46355;SDS011;32066;49.474;11.106;2023-04-24T01:19:38;3.35;;;1.10;;
46355;SDS011;32066;49.474;11.106;2023-04-24T01:22:13;5.53;;;1.45;;
46355;SDS011;32066;49.474;11.106;2023-04-24T01:24:42;4.65;;;1.77;;
46355;SDS011;32066;49.474;11.106;2023-04-24T01:27:11;5.28;;;1.48;;
46355;SDS011;32066;49.474;11.106;2023-04-24T01:29:40;5.45;;;1.58;;
46355;SDS011;32066;49.474;11.106;2023-04-24T01:32:09;4.32;;;1.70;;
46355;SDS011;32066;49.474;11.106;2023-04-24T01:34:39;3.08;;;1.42;;
46355;SDS011;32066;49.474;11.106;2023-04-24T01:37:08;4.10;;;1.70;;
46355;SDS011;32066;49.474;11.106;2023-04-24T01:39:40;3.70;;;1.45;;
46355;SDS011;32066;49.474;11.106;2023-04-24T01:42:08;6.05;;;1.98;;
46355;SDS011;32066;49.474;11.106;2023-04-24T01:44:38;4.35;;;1.98;;
46355;SDS011;32066;49.474;11.106;2023-04-24T01:47:07;4.35;;;1.70;;
46355;SDS011;32066;49.474;11.106;2023-04-24T01:49:36;4.13;;;1.77;;
46355;SDS011;32066;49.474;11.106;2023-04-24T01:52:06;3.97;;;1.65;;
46355;SDS011;32066;49.474;11.106;2023-04-24T01:54:34;5.88;;;1.75;;
46355;SDS011;32066;49.474;11.106;2023-04-24T01:57:06;3.60;;;1.40;;
46355;SDS011;32066;49.474;11.106;2023-04-24T01:59:35;4.07;;;1.70;;
46355;SDS011;32066;49.474;11.106;2023-04-24T02:02:04;4.10;;;1.60;;
46355;SDS011;32066;49.474;11.106;2023-04-24T02:04:34;3.42;;;1.30;;
46355;SDS011;32066;49.474;11.106;2023-04-24T02:07:02;3.65;;;1.40;;
46355;SDS011;32066;49.474;11.106;2023-04-24T02:09:31;3.22;;;1.20;;
46355;SDS011;32066;49.474;11.106;2023-04-24T02:12:00;3.92;;;1.00;;
46355;SDS011;32066;49.474;11.106;2023-04-24T02:14:31;3.72;;;1.10;;
46355;SDS011;32066;49.474;11.106;2023-04-24T02:17:00;3.78;;;1.33;;
46355;SDS011;32066;49.474;11.106;2023-04-24T02:19:28;2.90;;;1.20;;
46355;SDS011;32066;49.474;11.106;2023-04-24T02:21:57;3.63;;;1.20;;
46355;SDS011;32066;49.474;11.106;2023-04-24T02:24:28;3.20;;;1.08;;
46355;SDS011;32066;49.474;11.106;2023-04-24T02:26:57;3.33;;;1.10;;
46355;SDS011;32066;49.474;11.106;2023-04-24T02:29:28;4.50;;;1.20;;
46355;SDS011;32066;49.474;11.106;2023-04-24T02:31:59;3.63;;;1.20;;
46355;SDS011;32066;49.474;11.106;2023-04-24T02:34:27;3.05;;;1.00;;
46355;SDS011;32066;49.474;11.106;2023-04-24T02:36:58;4.00;;;1.02;;
46355;SDS011;32066;49.474;11.106;2023-04-24T02:39:27;2.85;;;1.00;;
46355;SDS011;32066;49.474;11.106;2023-04-24T02:41:55;3.30;;;1.20;;
46355;SDS011;32066;49.474;11.106;2023-04-24T02:44:25;3.30;;;1.17;;
46355;SDS011;32066;49.474;11.106;2023-04-24T02:46:56;4.40;;;1.30;;
46355;SDS011;32066;49.474;11.106;2023-04-24T02:49:25;3.40;;;1.40;;
46355;SDS011;32066;49.474;11.106;2023-04-24T02:51:53;3.58;;;1.15;;
46355;SDS011;32066;49.474;11.106;2023-04-24T02:54:22;6.35;;;1.52;;
46355;SDS011;32066;49.474;11.106;2023-04-24T02:56:51;5.03;;;1.30;;
46355;SDS011;32066;49.474;11.106;2023-04-24T02:59:20;4.18;;;1.45;;
46355;SDS011;32066;49.474;11.106;2023-04-24T03:01:48;3.35;;;1.33;;
46355;SDS011;32066;49.474;11.106;2023-04-24T03:04:20;2.78;;;1.08;;
46355;SDS011;32066;49.474;11.106;2023-04-24T03:06:48;4.05;;;1.50;;
46355;SDS011;32066;49.474;11.106;2023-04-24T03:09:19;3.55;;;1.50;;
46355;SDS011;32066;49.474;11.106;2023-04-24T03:11:48;3.50;;;1.33;;
46355;SDS011;32066;49.474;11.106;2023-04-24T03:14:17;4.70;;;1.58;;
46355;SDS011;32066;49.474;11.106;2023-04-24T03:16:46;3.20;;;1.20;;
46355;SDS011;32066;49.474;11.106;2023-04-24T03:19:15;3.03;;;1.17;;
46355;SDS011;32066;49.474;11.106;2023-04-24T03:21:57;2.92;;;1.20;;
46355;SDS011;32066;49.474;11.106;2023-04-24T03:24:26;3.50;;;1.15;;
46355;SDS011;32066;49.474;11.106;2023-04-24T03:26:56;3.42;;;1.27;;
46355;SDS011;32066;49.474;11.106;2023-04-24T03:29:44;2.90;;;1.10;;
46355;SDS011;32066;49.474;11.106;2023-04-24T03:32:14;4.50;;;1.60;;
46355;SDS011;32066;49.474;11.106;2023-04-24T03:34:45;3.33;;;1.20;;
46355;SDS011;32066;49.474;11.106;2023-04-24T03:37:16;4.13;;;1.10;;
46355;SDS011;32066;49.474;11.106;2023-04-24T03:39:54;2.97;;;1.10;;
46355;SDS011;32066;49.474;11.106;2023-04-24T03:42:24;3.72;;;1.40;;
46355;SDS011;32066;49.474;11.106;2023-04-24T03:44:55;4.43;;;1.50;;
46355;SDS011;32066;49.474;11.106;2023-04-24T03:47:29;3.50;;;1.23;;
46355;SDS011;32066;49.474;11.106;2023-04-24T03:50:02;3.70;;;1.27;;
46355;SDS011;32066;49.474;11.106;2023-04-24T03:52:35;5.18;;;1.55;;
46355;SDS011;32066;49.474;11.106;2023-04-24T03:55:04;3.35;;;1.08;;
46355;SDS011;32066;49.474;11.106;2023-04-24T04:00:17;3.67;;;1.30;;
46355;SDS011;32066;49.474;11.106;2023-04-24T04:02:52;3.47;;;1.33;;
46355;SDS011;32066;49.474;11.106;2023-04-24T04:05:20;6.75;;;1.30;;
46355;SDS011;32066;49.474;11.106;2023-04-24T04:07:52;3.05;;;1.33;;
46355;SDS011;32066;49.474;11.106;2023-04-24T04:10:20;3.75;;;1.20;;
46355;SDS011;32066;49.474;11.106;2023-04-24T04:12:49;5.28;;;1.60;;
46355;SDS011;32066;49.474;11.106;2023-04-24T04:15:18;3.17;;;1.40;;
46355;SDS011;32066;49.474;11.106;2023-04-24T04:17:48;4.47;;;1.30;;
46355;SDS011;32066;49.474;11.106;2023-04-24T04:20:18;3.35;;;1.30;;
46355;SDS011;32066;49.474;11.106;2023-04-24T04:22:47;3.70;;;1.35;;
46355;SDS011;32066;49.474;11.106;2023-04-24T04:25:25;4.13;;;1.40;;
46355;SDS011;32066;49.474;11.106;2023-04-24T04:27:54;4.65;;;1.50;;
46355;SDS011;32066;49.474;11.106;2023-04-24T04:30:24;3.60;;;1.23;;
46355;SDS011;32066;49.474;11.106;2023-04-24T04:32:58;6.43;;;1.65;;
46355;SDS011;32066;49.474;11.106;2023-04-24T04:35:27;4.18;;;1.48;;
46355;SDS011;32066;49.474;11.106;2023-04-24T04:37:56;3.25;;;1.30;;
46355;SDS011;32066;49.474;11.106;2023-04-24T04:40:45;3.25;;;1.40;;
46355;SDS011;32066;49.474;11.106;2023-04-24T04:43:15;4.55;;;1.30;;
46355;SDS011;32066;49.474;11.106;2023-04-24T04:45:49;3.42;;;1.40;;
46355;SDS011;32066;49.474;11.106;2023-04-24T04:48:42;4.47;;;1.40;;
46355;SDS011;32066;49.474;11.106;2023-04-24T04:51:11;2.90;;;1.20;;
46355;SDS011;32066;49.474;11.106;2023-04-24T04:53:40;3.83;;;1.60;;
46355;SDS011;32066;49.474;11.106;2023-04-24T04:56:11;4.90;;;1.75;;
46355;SDS011;32066;49.474;11.106;2023-04-24T04:58:43;3.67;;;1.30;;
46355;SDS011;32066;49.474;11.106;2023-04-24T05:01:15;3.83;;;1.42;;
46355;SDS011;32066;49.474;11.106;2023-04-24T05:03:46;4.82;;;1.50;;
46355;SDS011;32066;49.474;11.106;2023-04-24T05:06:16;3.33;;;1.48;;
46355;SDS011;32066;49.474;11.106;2023-04-24T05:08:45;3.83;;;1.42;;
46355;SDS011;32066;49.474;11.106;2023-04-24T05:11:27;3.60;;;1.45;;
46355;SDS011;32066;49.474;11.106;2023-04-24T05:13:56;3.35;;;1.40;;
46355;SDS011;32066;49.474;11.106;2023-04-24T05:16:34;4.40;;;1.40;;
46355;SDS011;32066;49.474;11.106;2023-04-24T05:19:04;3.67;;;1.50;;
46355;SDS011;32066;49.474;11.106;2023-04-24T05:21:39;5.45;;;1.83;;
46355;SDS011;32066;49.474;11.106;2023-04-24T05:24:09;5.38;;;1.88;;
46355;SDS011;32066;49.474;11.106;2023-04-24T05:26:52;4.60;;;1.65;;
46355;SDS011;32066;49.474;11.106;2023-04-24T05:29:27;5.03;;;1.83;;
46355;SDS011;32066;49.474;11.106;2023-04-24T05:31:56;4.38;;;1.50;;
46355;SDS011;32066;49.474;11.106;2023-04-24T05:34:27;4.93;;;1.70;;
46355;SDS011;32066;49.474;11.106;2023-04-24T05:36:56;4.95;;;1.70;;
46355;SDS011;32066;49.474;11.106;2023-04-24T05:39:25;4.90;;;1.55;;
46355;SDS011;32066;49.474;11.106;2023-04-24T05:41:56;5.10;;;1.90;;
46355;SDS011;32066;49.474;11.106;2023-04-24T05:44:26;3.88;;;2.00;;
46355;SDS011;32066;49.474;11.106;2023-04-24T05:46:55;6.63;;;2.17;;
46355;SDS011;32066;49.474;11.106;2023-04-24T05:49:24;3.95;;;1.70;;
46355;SDS011;32066;49.474;11.106;2023-04-24T05:51:53;4.68;;;1.60;;
46355;SDS011;32066;49.474;11.106;2023-04-24T05:54:21;5.28;;;1.83;;
46355;SDS011;32066;49.474;11.106;2023-04-24T05:56:51;3.58;;;1.65;;
46355;SDS011;32066;49.474;11.106;2023-04-24T05:59:32;5.82;;;1.80;;
46355;SDS011;32066;49.474;11.106;2023-04-24T06:02:01;4.30;;;2.35;;
46355;SDS011;32066;49.474;11.106;2023-04-24T06:04:31;9.30;;;3.15;;
46355;SDS011;32066;49.474;11.106;2023-04-24T06:07:00;4.13;;;1.90;;
46355;SDS011;32066;49.474;11.106;2023-04-24T06:09:29;5.65;;;1.80;;
46355;SDS011;32066;49.474;11.106;2023-04-24T06:11:58;5.07;;;2.08;;
46355;SDS011;32066;49.474;11.106;2023-04-24T06:14:41;4.63;;;1.80;;
46355;SDS011;32066;49.474;11.106;2023-04-24T06:17:25;4.78;;;1.60;;
46355;SDS011;32066;49.474;11.106;2023-04-24T06:19:53;4.32;;;1.95;;
46355;SDS011;32066;49.474;11.106;2023-04-24T06:22:23;5.20;;;1.80;;
46355;SDS011;32066;49.474;11.106;2023-04-24T06:24:52;4.93;;;2.20;;
46355;SDS011;32066;49.474;11.106;2023-04-24T06:27:21;4.45;;;1.63;;
46355;SDS011;32066;49.474;11.106;2023-04-24T06:29:52;4.90;;;1.77;;
46355;SDS011;32066;49.474;11.106;2023-04-24T06:32:22;3.90;;;1.52;;
46355;SDS011;32066;49.474;11.106;2023-04-24T06:34:52;6.90;;;2.08;;
46355;SDS011;32066;49.474;11.106;2023-04-24T06:37:21;3.85;;;1.85;;
46355;SDS011;32066;49.474;11.106;2023-04-24T06:39:49;4.53;;;1.70;;
46355;SDS011;32066;49.474;11.106;2023-04-24T06:42:18;5.68;;;1.67;;
46355;SDS011;32066;49.474;11.106;2023-04-24T06:44:49;5.60;;;1.80;;
46355;SDS011;32066;49.474;11.106;2023-04-24T06:47:20;5.25;;;1.40;;
46355;SDS011;32066;49.474;11.106;2023-04-24T06:49:49;4.65;;;1.55;;
46355;SDS011;32066;49.474;11.106;2023-04-24T06:52:18;5.80;;;1.50;;
46355;SDS011;32066;49.474;11.106;2023-04-24T06:54:51;4.65;;;1.45;;
46355;SDS011;32066;49.474;11.106;2023-04-24T06:57:19;3.63;;;1.23;;
46355;SDS011;32066;49.474;11.106;2023-04-24T06:59:48;3.40;;;1.20;;
46355;SDS011;32066;49.474;11.106;2023-04-24T07:02:19;3.63;;;1.25;;
46355;SDS011;32066;49.474;11.106;2023-04-24T07:04:48;3.10;;;1.27;;
46355;SDS011;32066;49.474;11.106;2023-04-24T07:07:18;3.78;;;1.42;;
46355;SDS011;32066;49.474;11.106;2023-04-24T07:09:46;6.20;;;1.30;;
46355;SDS011;32066;49.474;11.106;2023-04-24T07:12:15;3.78;;;1.25;;
46355;SDS011;32066;49.474;11.106;2023-04-24T07:14:46;5.65;;;1.17;;
46355;SDS011;32066;49.474;11.106;2023-04-24T07:17:14;4.80;;;1.50;;
46355;SDS011;32066;49.474;11.106;2023-04-24T07:19:45;4.90;;;1.40;;
46355;SDS011;32066;49.474;11.106;2023-04-24T07:22:14;4.57;;;1.20;;
46355;SDS011;32066;49.474;11.106;2023-04-24T07:24:43;4.72;;;1.20;;
46355;SDS011;32066;49.474;11.106;2023-04-24T07:27:13;3.95;;;1.05;;
46355;SDS011;32066;49.474;11.106;2023-04-24T07:29:42;5.28;;;1.30;;
46355;SDS011;32066;49.474;11.106;2023-04-24T07:32:10;3.63;;;1.10;;
46355;SDS011;32066;49.474;11.106;2023-04-24T07:34:39;4.95;;;1.30;;
46355;SDS011;32066;49.474;11.106;2023-04-24T07:37:10;4.15;;;1.15;;
46355;SDS011;32066;49.474;11.106;2023-04-24T07:39:39;4.15;;;1.40;;
46355;SDS011;32066;49.474;11.106;2023-04-24T07:42:07;3.90;;;1.27;;
46355;SDS011;32066;49.474;11.106;2023-04-24T07:44:36;3.38;;;1.33;;
46355;SDS011;32066;49.474;11.106;2023-04-24T07:47:05;4.97;;;1.50;;
46355;SDS011;32066;49.474;11.106;2023-04-24T07:49:33;3.00;;;1.00;;
46355;SDS011;32066;49.474;11.106;2023-04-24T07:52:02;5.47;;;1.33;;
46355;SDS011;32066;49.474;11.106;2023-04-24T07:54:33;3.17;;;1.38;;
46355;SDS011;32066;49.474;11.106;2023-04-24T07:57:02;3.47;;;1.25;;
46355;SDS011;32066;49.474;11.106;2023-04-24T07:59:33;5.20;;;1.50;;
46355;SDS011;32066;49.474;11.106;2023-04-24T08:02:01;3.58;;;1.60;;
46355;SDS011;32066;49.474;11.106;2023-04-24T08:04:31;4.60;;;1.38;;
46355;SDS011;32066;49.474;11.106;2023-04-24T08:07:00;4.70;;;1.38;;
46355;SDS011;32066;49.474;11.106;2023-04-24T08:09:28;4.85;;;1.55;;
46355;SDS011;32066;49.474;11.106;2023-04-24T08:11:59;5.10;;;1.48;;
46355;SDS011;32066;49.474;11.106;2023-04-24T08:14:29;3.15;;;1.23;;
46355;SDS011;32066;49.474;11.106;2023-04-24T08:16:57;3.47;;;1.30;;
46355;SDS011;32066;49.474;11.106;2023-04-24T08:19:27;3.28;;;1.20;;
46355;SDS011;32066;49.474;11.106;2023-04-24T08:21:56;4.18;;;1.30;;
46355;SDS011;32066;49.474;11.106;2023-04-24T08:24:24;3.90;;;1.40;;
46355;SDS011;32066;49.474;11.106;2023-04-24T08:26:53;3.75;;;1.38;;
46355;SDS011;32066;49.474;11.106;2023-04-24T08:29:25;3.38;;;1.30;;
46355;SDS011;32066;49.474;11.106;2023-04-24T08:31:54;5.07;;;1.48;;
46355;SDS011;32066;49.474;11.106;2023-04-24T08:34:23;3.30;;;1.35;;
46355;SDS011;32066;49.474;11.106;2023-04-24T08:36:51;3.08;;;1.15;;
46355;SDS011;32066;49.474;11.106;2023-04-24T08:39:20;3.10;;;1.30;;
46355;SDS011;32066;49.474;11.106;2023-04-24T08:41:49;6.00;;;1.38;;
46355;SDS011;32066;49.474;11.106;2023-04-24T08:44:20;4.63;;;1.45;;
46355;SDS011;32066;49.474;11.106;2023-04-24T08:46:51;3.97;;;1.50;;
46355;SDS011;32066;49.474;11.106;2023-04-24T08:49:24;3.60;;;1.60;;
46355;SDS011;32066;49.474;11.106;2023-04-24T08:51:55;5.32;;;1.60;;
46355;SDS011;32066;49.474;11.106;2023-04-24T08:54:25;4.18;;;1.40;;
46355;SDS011;32066;49.474;11.106;2023-04-24T08:56:53;4.35;;;1.50;;
46355;SDS011;32066;49.474;11.106;2023-04-24T08:59:26;3.53;;;1.30;;
46355;SDS011;32066;49.474;11.106;2023-04-24T09:01:58;3.88;;;1.30;;
46355;SDS011;32066;49.474;11.106;2023-04-24T09:04:28;5.28;;;1.70;;
46355;SDS011;32066;49.474;11.106;2023-04-24T09:06:58;4.45;;;1.45;;
46355;SDS011;32066;49.474;11.106;2023-04-24T09:09:27;3.85;;;1.48;;
46355;SDS011;32066;49.474;11.106;2023-04-24T09:11:57;4.10;;;1.40;;
46355;SDS011;32066;49.474;11.106;2023-04-24T09:14:27;4.68;;;1.50;;
46355;SDS011;32066;49.474;11.106;2023-04-24T09:16:59;3.35;;;1.30;;
46355;SDS011;32066;49.474;11.106;2023-04-24T09:19:28;3.20;;;1.17;;
46355;SDS011;32066;49.474;11.106;2023-04-24T09:21:57;3.88;;;1.48;;
46355;SDS011;32066;49.474;11.106;2023-04-24T09:24:25;3.20;;;1.30;;
46355;SDS011;32066;49.474;11.106;2023-04-24T09:26:55;5.57;;;1.30;;
46355;SDS011;32066;49.474;11.106;2023-04-24T09:29:27;3.97;;;1.80;;
46355;SDS011;32066;49.474;11.106;2023-04-24T09:32:00;5.25;;;1.48;;
46355;SDS011;32066;49.474;11.106;2023-04-24T09:34:47;3.63;;;1.30;;
46355;SDS011;32066;49.474;11.106;2023-04-24T09:37:27;5.25;;;1.35;;
46355;SDS011;32066;49.474;11.106;2023-04-24T09:42:44;4.45;;;1.40;;
46355;SDS011;32066;49.474;11.106;2023-04-24T09:45:14;4.05;;;1.52;;
46355;SDS011;32066;49.474;11.106;2023-04-24T09:47:45;2.95;;;1.20;;
46355;SDS011;32066;49.474;11.106;2023-04-24T09:50:19;2.90;;;1.20;;
46355;SDS011;32066;49.474;11.106;2023-04-24T09:52:56;3.33;;;1.48;;
46355;SDS011;32066;49.474;11.106;2023-04-24T09:55:26;3.55;;;1.25;;
46355;SDS011;32066;49.474;11.106;2023-04-24T09:57:56;3.22;;;1.20;;
46355;SDS011;32066;49.474;11.106;2023-04-24T10:00:27;3.35;;;1.20;;
46355;SDS011;32066;49.474;11.106;2023-04-24T10:03:00;3.70;;;1.10;;
46355;SDS011;32066;49.474;11.106;2023-04-24T10:05:37;4.82;;;1.30;;
46355;SDS011;32066;49.474;11.106;2023-04-24T10:08:09;3.42;;;1.40;;
46355;SDS011;32066;49.474;11.106;2023-04-24T10:10:40;3.13;;;1.10;;
46355;SDS011;32066;49.474;11.106;2023-04-24T10:13:11;3.22;;;1.10;;
46355;SDS011;32066;49.474;11.106;2023-04-24T10:15:40;5.18;;;1.60;;
46355;SDS011;32066;49.474;11.106;2023-04-24T10:18:12;3.83;;;1.30;;
46355;SDS011;32066;49.474;11.106;2023-04-24T10:20:41;3.55;;;1.17;;
46355;SDS011;32066;49.474;11.106;2023-04-24T10:23:10;4.10;;;1.17;;
46355;SDS011;32066;49.474;11.106;2023-04-24T10:25:39;3.72;;;1.20;;
46355;SDS011;32066;49.474;11.106;2023-04-24T10:28:08;3.60;;;1.20;;
46355;SDS011;32066;49.474;11.106;2023-04-24T10:30:38;3.13;;;1.15;;
46355;SDS011;32066;49.474;11.106;2023-04-24T10:33:13;4.63;;;1.20;;
46355;SDS011;32066;49.474;11.106;2023-04-24T10:35:43;3.30;;;1.00;;
46355;SDS011;32066;49.474;11.106;2023-04-24T10:38:14;4.72;;;1.00;;
46355;SDS011;32066;49.474;11.106;2023-04-24T10:40:46;4.38;;;1.00;;
46355;SDS011;32066;49.474;11.106;2023-04-24T10:43:16;5.63;;;1.00;;
46355;SDS011;32066;49.474;11.106;2023-04-24T10:46:00;2.75;;;0.90;;
46355;SDS011;32066;49.474;11.106;2023-04-24T10:48:32;5.28;;;1.10;;
46355;SDS011;32066;49.474;11.106;2023-04-24T10:51:01;7.03;;;0.98;;
46355;SDS011;32066;49.474;11.106;2023-04-24T10:53:30;2.80;;;0.90;;
46355;SDS011;32066;49.474;11.106;2023-04-24T10:56:03;2.25;;;0.80;;
46355;SDS011;32066;49.474;11.106;2023-04-24T10:58:36;2.97;;;0.93;;
46355;SDS011;32066;49.474;11.106;2023-04-24T11:01:11;2.78;;;0.90;;
46355;SDS011;32066;49.474;11.106;2023-04-24T11:03:56;2.72;;;0.80;;
46355;SDS011;32066;49.474;11.106;2023-04-24T11:09:04;5.85;;;0.85;;
46355;SDS011;32066;49.474;11.106;2023-04-24T11:11:34;2.55;;;0.90;;
46355;SDS011;32066;49.474;11.106;2023-04-24T11:14:06;3.35;;;0.82;;
46355;SDS011;32066;49.474;11.106;2023-04-24T11:16:37;2.13;;;0.90;;
46355;SDS011;32066;49.474;11.106;2023-04-24T11:19:17;3.28;;;1.00;;
46355;SDS011;32066;49.474;11.106;2023-04-24T11:21:57;3.00;;;1.20;;
46355;SDS011;32066;49.474;11.106;2023-04-24T11:24:29;2.97;;;0.90;;
46355;SDS011;32066;49.474;11.106;2023-04-24T11:26:59;3.22;;;1.10;;
46355;SDS011;32066;49.474;11.106;2023-04-24T11:29:39;2.80;;;1.00;;
46355;SDS011;32066;49.474;11.106;2023-04-24T11:32:23;4.65;;;1.23;;
46355;SDS011;32066;49.474;11.106;2023-04-24T11:34:55;2.95;;;1.10;;
46355;SDS011;32066;49.474;11.106;2023-04-24T11:37:26;4.13;;;1.52;;
46355;SDS011;32066;49.474;11.106;2023-04-24T11:39:57;4.00;;;1.20;;
46355;SDS011;32066;49.474;11.106;2023-04-24T11:42:26;3.45;;;1.40;;
46355;SDS011;32066;49.474;11.106;2023-04-24T11:44:56;3.60;;;1.20;;
46355;SDS011;32066;49.474;11.106;2023-04-24T11:47:28;3.42;;;1.30;;
46355;SDS011;32066;49.474;11.106;2023-04-24T11:50:01;3.75;;;1.30;;
46355;SDS011;32066;49.474;11.106;2023-04-24T11:52:31;3.20;;;1.20;;
46355;SDS011;32066;49.474;11.106;2023-04-24T11:55:01;3.38;;;1.50;;
46355;SDS011;32066;49.474;11.106;2023-04-24T11:57:30;4.35;;;1.30;;
46355;SDS011;32066;49.474;11.106;2023-04-24T12:00:01;3.97;;;1.40;;
46355;SDS011;32066;49.474;11.106;2023-04-24T12:02:37;5.32;;;1.60;;
46355;SDS011;32066;49.474;11.106;2023-04-24T12:05:09;3.22;;;1.30;;
46355;SDS011;32066;49.474;11.106;2023-04-24T12:07:46;4.90;;;1.50;;
46355;SDS011;32066;49.474;11.106;2023-04-24T12:10:19;3.00;;;1.42;;
46355;SDS011;32066;49.474;11.106;2023-04-24T12:12:49;3.67;;;1.38;;
46355;SDS011;32066;49.474;11.106;2023-04-24T12:15:18;3.92;;;1.30;;
46355;SDS011;32066;49.474;11.106;2023-04-24T12:17:50;3.13;;;1.30;;
46355;SDS011;32066;49.474;11.106;2023-04-24T12:20:26;4.60;;;1.25;;
46355;SDS011;32066;49.474;11.106;2023-04-24T12:22:56;3.28;;;1.33;;
46355;SDS011;32066;49.474;11.106;2023-04-24T12:25:27;3.85;;;1.40;;
46355;SDS011;32066;49.474;11.106;2023-04-24T12:28:08;3.40;;;1.48;;
46355;SDS011;32066;49.474;11.106;2023-04-24T12:30:39;4.25;;;1.48;;
46355;SDS011;32066;49.474;11.106;2023-04-24T12:33:09;3.45;;;1.30;;
46355;SDS011;32066;49.474;11.106;2023-04-24T12:35:41;4.65;;;1.30;;
46355;SDS011;32066;49.474;11.106;2023-04-24T12:38:10;3.65;;;1.30;;
46355;SDS011;32066;49.474;11.106;2023-04-24T12:40:40;3.85;;;1.20;;
46355;SDS011;32066;49.474;11.106;2023-04-24T12:43:13;3.47;;;1.10;;
46355;SDS011;32066;49.474;11.106;2023-04-24T12:45:42;4.10;;;1.27;;
46355;SDS011;32066;49.474;11.106;2023-04-24T12:48:11;2.40;;;0.90;;
46355;SDS011;32066;49.474;11.106;2023-04-24T12:50:43;4.03;;;1.35;;
46355;SDS011;32066;49.474;11.106;2023-04-24T12:53:12;3.80;;;1.23;;
46355;SDS011;32066;49.474;11.106;2023-04-24T12:55:41;4.20;;;1.35;;
46355;SDS011;32066;49.474;11.106;2023-04-24T12:58:10;3.10;;;1.20;;
46355;SDS011;32066;49.474;11.106;2023-04-24T13:00:38;4.07;;;1.20;;
46355;SDS011;32066;49.474;11.106;2023-04-24T13:03:08;3.05;;;1.02;;
46355;SDS011;32066;49.474;11.106;2023-04-24T13:05:37;2.60;;;0.90;;
46355;SDS011;32066;49.474;11.106;2023-04-24T13:08:08;3.30;;;1.10;;
46355;SDS011;32066;49.474;11.106;2023-04-24T13:10:38;3.03;;;1.00;;
46355;SDS011;32066;49.474;11.106;2023-04-24T13:13:07;2.50;;;0.90;;
46355;SDS011;32066;49.474;11.106;2023-04-24T13:15:36;2.78;;;0.98;;
46355;SDS011;32066;49.474;11.106;2023-04-24T13:18:05;3.00;;;1.00;;
46355;SDS011;32066;49.474;11.106;2023-04-24T13:20:33;2.90;;;1.00;;
46355;SDS011;32066;49.474;11.106;2023-04-24T13:23:03;3.53;;;1.10;;
46355;SDS011;32066;49.474;11.106;2023-04-24T13:25:34;3.22;;;1.02;;
46355;SDS011;32066;49.474;11.106;2023-04-24T13:28:04;2.95;;;1.15;;
46355;SDS011;32066;49.474;11.106;2023-04-24T13:30:32;3.20;;;1.10;;
46355;SDS011;32066;49.474;11.106;2023-04-24T13:33:01;5.68;;;1.20;;
46355;SDS011;32066;49.474;11.106;2023-04-24T13:35:30;2.90;;;1.08;;
46355;SDS011;32066;49.474;11.106;2023-04-24T13:37:59;3.95;;;1.23;;
46355;SDS011;32066;49.474;11.106;2023-04-24T13:40:31;3.42;;;1.20;;
46355;SDS011;32066;49.474;11.106;2023-04-24T13:43:02;4.85;;;1.77;;
46355;SDS011;32066;49.474;11.106;2023-04-24T13:45:31;4.90;;;1.63;;
46355;SDS011;32066;49.474;11.106;2023-04-24T13:48:00;4.78;;;1.80;;
46355;SDS011;32066;49.474;11.106;2023-04-24T13:50:28;3.72;;;1.60;;
46355;SDS011;32066;49.474;11.106;2023-04-24T13:52:57;4.10;;;1.85;;
46355;SDS011;32066;49.474;11.106;2023-04-24T13:55:26;3.40;;;1.50;;
46355;SDS011;32066;49.474;11.106;2023-04-24T13:57:57;3.67;;;1.50;;
46355;SDS011;32066;49.474;11.106;2023-04-24T14:00:26;3.53;;;1.30;;
46355;SDS011;32066;49.474;11.106;2023-04-24T14:02:56;3.72;;;1.30;;
46355;SDS011;32066;49.474;11.106;2023-04-24T14:05:24;3.42;;;1.27;;
46355;SDS011;32066;49.474;11.106;2023-04-24T14:07:54;3.60;;;1.40;;
46355;SDS011;32066;49.474;11.106;2023-04-24T14:10:23;5.18;;;1.27;;
46355;SDS011;32066;49.474;11.106;2023-04-24T14:12:52;4.10;;;1.10;;
46355;SDS011;32066;49.474;11.106;2023-04-24T14:15:23;6.45;;;1.70;;
46355;SDS011;32066;49.474;11.106;2023-04-24T14:17:52;3.72;;;1.27;;
46355;SDS011;32066;49.474;11.106;2023-04-24T14:20:20;3.38;;;1.30;;
46355;SDS011;32066;49.474;11.106;2023-04-24T14:22:49;3.53;;;1.30;;
46355;SDS011;32066;49.474;11.106;2023-04-24T14:25:18;5.07;;;1.60;;
46355;SDS011;32066;49.474;11.106;2023-04-24T14:27:47;2.80;;;1.20;;
46355;SDS011;32066;49.474;11.106;2023-04-24T14:30:16;3.35;;;1.33;;
46355;SDS011;32066;49.474;11.106;2023-04-24T14:32:48;3.65;;;1.20;;
46355;SDS011;32066;49.474;11.106;2023-04-24T14:35:17;4.20;;;1.30;;
46355;SDS011;32066;49.474;11.106;2023-04-24T14:37:45;3.95;;;1.77;;
46355;SDS011;32066;49.474;11.106;2023-04-24T14:40:14;3.40;;;1.30;;
46355;SDS011;32066;49.474;11.106;2023-04-24T14:42:43;3.70;;;1.30;;
46355;SDS011;32066;49.474;11.106;2023-04-24T14:45:12;4.22;;;1.38;;
46355;SDS011;32066;49.474;11.106;2023-04-24T14:47:41;2.85;;;1.33;;
46355;SDS011;32066;49.474;11.106;2023-04-24T14:50:12;3.53;;;1.30;;
46355;SDS011;32066;49.474;11.106;2023-04-24T14:52:41;4.25;;;1.23;;
46355;SDS011;32066;49.474;11.106;2023-04-24T14:55:09;3.80;;;1.33;;
46355;SDS011;32066;49.474;11.106;2023-04-24T14:57:38;4.55;;;1.85;;
46355;SDS011;32066;49.474;11.106;2023-04-24T15:00:07;3.60;;;1.73;;
46355;SDS011;32066;49.474;11.106;2023-04-24T15:02:37;5.03;;;1.90;;